Time;durP1;ratioP1;P1;durP2;ratioP2;P2;SDS_P1;SDS_P2;PMS_P1;PMS_P2;Temp;Humidity;BMP_temperature;BMP_pressure;BME280_temperature;BME280_humidity;BME280_pressure;Samples;Min_cycle;Max_cycle;Signal;HPM_P1;HPM_P2
2024/02/07 00:00:18;;;;;;;;;;;;;;;23.40;34.11;100988.50;4215736;28;19927;-61
2024/02/07 00:02:20;;;;;;;;;;;;;;;23.39;34.09;100985.91;4215808;28;20444;-61
2024/02/07 00:04:21;;;;;;;;;;;;;;;23.38;34.06;100987.75;4215924;28;19920;-61
2024/02/07 00:06:23;;;;;;;;;;;;;;;23.37;34.10;100979.84;4215982;28;20290;-61
2024/02/07 00:08:25;;;;;;;;;;;;;;;23.38;34.53;100984.22;4215562;28;19920;-61
2024/02/07 00:10:27;;;;;;;;;;;;;;;23.38;34.08;100979.72;4215809;28;19977;-61
2024/02/07 00:12:28;;;;;;;;;;;;;;;23.39;34.01;100989.47;4215779;28;19924;-61
2024/02/07 00:14:30;;;;;;;;;;;;;;;23.41;34.08;100979.44;4215437;28;19962;-61
2024/02/07 00:16:31;;;;;;;;;;;;;;;23.42;34.11;100981.13;4214546;28;19920;-61
2024/02/07 00:18:33;;;;;;;;;;;;;;;23.44;34.31;100970.28;4215526;28;19924;-62
2024/02/07 00:20:35;;;;;;;;;;;;;;;23.44;34.30;100964.91;4215639;28;19927;-61
2024/02/07 00:22:36;;;;;;;;;;;;;;;23.43;34.14;100952.47;4214562;28;20402;-61
2024/02/07 00:24:39;;;;;;;;;;;;;;;23.41;34.33;100952.59;4215930;28;20017;-61
2024/02/07 00:26:40;;;;;;;;;;;;;;;23.40;34.13;100947.34;4215615;28;19955;-60
2024/02/07 00:28:42;;;;;;;;;;;;;;;23.39;34.16;100946.53;4215327;28;20132;-61
2024/02/07 00:30:44;;;;;;;;;;;;;;;23.38;34.03;100944.81;4215510;28;19927;-62
2024/02/07 00:32:45;;;;;;;;;;;;;;;23.37;34.27;100944.97;4215811;28;19924;-61
2024/02/07 00:34:47;;;;;;;;;;;;;;;23.37;34.04;100940.44;4215234;28;19943;-61
2024/02/07 00:36:48;;;;;;;;;;;;;;;23.37;34.29;100937.75;4215310;28;19959;-61
2024/02/07 00:38:50;;;;;;;;;;;;;;;23.39;34.24;100932.22;4215312;28;19981;-60
2024/02/07 00:40:51;;;;;;;;;;;;;;;23.41;34.41;100932.97;4215098;28;20336;-61
2024/02/07 00:42:54;;;;;;;;;;;;;;;23.42;34.21;100918.56;4214967;28;19927;-60
2024/02/07 00:44:55;;;;;;;;;;;;;;;23.43;34.19;100926.47;4214233;28;19957;-61
2024/02/07 00:46:57;;;;;;;;;;;;;;;23.43;34.40;100931.84;4215480;28;19924;-61
2024/02/07 00:49:02;;;;;;;;;;;;;;;23.41;34.09;100941.00;4215433;28;19920;-60
2024/02/07 00:51:03;;;;;;;;;;;;;;;23.40;34.44;100933.94;4215353;28;20294;-61
2024/02/07 00:53:06;;;;;;;;;;;;;;;23.41;34.23;100922.22;4213700;28;19924;-61
2024/02/07 00:55:09;;;;;;;;;;;;;;;23.39;34.24;100925.03;4215019;28;19969;-61
2024/02/07 00:57:11;;;;;;;;;;;;;;;23.39;34.37;100916.13;4214832;28;20014;-60
2024/02/07 00:59:13;;;;;;;;;;;;;;;23.38;34.40;100911.75;4215021;28;20003;-61
2024/02/07 01:01:15;;;;;;;;;;;;;;;23.37;34.15;100905.53;4214781;28;19920;-61
2024/02/07 01:03:17;;;;;;;;;;;;;;;23.37;34.47;100902.84;4214884;28;19988;-61
2024/02/07 01:05:19;;;;;;;;;;;;;;;23.36;34.34;100906.50;4215041;28;19927;-60
2024/02/07 01:07:20;;;;;;;;;;;;;;;23.37;34.28;100900.16;4214894;28;19920;-61
2024/02/07 01:09:22;;;;;;;;;;;;;;;23.40;34.56;100899.03;4214914;28;20007;-61
2024/02/07 01:11:23;;;;;;;;;;;;;;;23.39;34.51;100884.78;4214716;28;20011;-60
2024/02/07 01:13:25;;;;;;;;;;;;;;;23.40;34.45;100897.22;4214603;28;19962;-60
2024/02/07 01:15:27;;;;;;;;;;;;;;;23.40;34.46;100889.19;4214838;28;19942;-61
2024/02/07 01:17:28;;;;;;;;;;;;;;;23.40;34.25;100897.22;4214865;28;20348;-61
2024/02/07 01:19:30;;;;;;;;;;;;;;;23.41;34.32;100892.69;4214800;28;19919;-61
2024/02/07 01:21:31;;;;;;;;;;;;;;;23.39;34.34;100890.16;4214754;28;20333;-61
2024/02/07 01:23:33;;;;;;;;;;;;;;;23.39;34.49;100886.59;4214463;28;19966;-60
2024/02/07 01:25:35;;;;;;;;;;;;;;;23.38;34.69;100885.78;4213516;28;19920;-61
2024/02/07 01:27:37;;;;;;;;;;;;;;;23.37;34.62;100877.84;4214152;28;19951;-61
2024/02/07 01:29:38;;;;;;;;;;;;;;;23.35;34.32;100869.91;4214557;28;19943;-60
2024/02/07 01:31:39;;;;;;;;;;;;;;;23.36;34.60;100846.63;4214621;28;20302;-61
2024/02/07 01:33:42;;;;;;;;;;;;;;;23.36;34.35;100844.78;4214312;28;19942;-62
2024/02/07 01:35:44;;;;;;;;;;;;;;;23.37;34.67;100849.16;4214323;28;19920;-60
2024/02/07 01:37:46;;;;;;;;;;;;;;;23.38;34.19;100848.19;4214598;28;19919;-61
2024/02/07 01:39:47;;;;;;;;;;;;;;;23.39;34.48;100849.03;4214536;28;19924;-61
2024/02/07 01:41:58;;;;;;;;;;;;;;;23.40;34.27;100837.31;4213869;28;19920;-61
2024/02/07 01:44:01;;;;;;;;;;;;;;;23.40;34.40;100840.00;4214365;28;19920;-61
2024/02/07 01:46:03;;;;;;;;;;;;;;;23.41;34.33;100837.16;4214345;28;20015;-61
2024/02/07 01:48:05;;;;;;;;;;;;;;;23.40;34.34;100830.13;4214361;28;20011;-61
2024/02/07 01:50:09;;;;;;;;;;;;;;;23.39;34.45;100833.78;4214250;28;19920;-61
2024/02/07 01:52:12;;;;;;;;;;;;;;;23.37;34.43;100833.06;4214118;28;19950;-62
2024/02/07 01:54:13;;;;;;;;;;;;;;;23.37;34.32;100821.50;4214126;28;20337;-61
2024/02/07 01:56:16;;;;;;;;;;;;;;;23.36;34.38;100831.38;4213806;28;19963;-61
2024/02/07 01:58:18;;;;;;;;;;;;;;;23.36;34.78;100827.84;4213995;28;19931;-61
2024/02/07 02:00:21;;;;;;;;;;;;;;;23.35;34.62;100832.34;4212954;28;19982;-60
2024/02/07 02:02:23;;;;;;;;;;;;;;;23.37;34.44;100825.03;4214423;28;19926;-61
2024/02/07 02:04:25;;;;;;;;;;;;;;;23.37;34.40;100830.38;4213163;28;19924;-61
2024/02/07 02:06:26;;;;;;;;;;;;;;;23.38;34.34;100817.81;4213010;28;19923;-60
2024/02/07 02:08:28;;;;;;;;;;;;;;;23.38;34.49;100824.03;4214106;28;19955;-61
2024/02/07 02:10:30;;;;;;;;;;;;;;;23.36;34.50;100822.47;4213680;28;19920;-61
2024/02/07 02:12:32;;;;;;;;;;;;;;;23.36;34.46;100817.94;4214232;28;19920;-60
2024/02/07 02:14:33;;;;;;;;;;;;;;;23.37;34.71;100816.97;4214222;28;20432;-61
2024/02/07 02:16:37;;;;;;;;;;;;;;;23.37;34.71;100816.13;4214088;28;19920;-61
2024/02/07 02:18:38;;;;;;;;;;;;;;;23.37;34.61;100816.13;4214019;28;20470;-60
2024/02/07 02:20:41;;;;;;;;;;;;;;;23.35;34.71;100810.88;4213853;28;20308;-61
2024/02/07 02:22:54;;;;;;;;;;;;;;;23.35;34.48;100805.50;4213893;28;19955;-60
2024/02/07 02:25:15;;;;;;;;;;;;;;;23.34;34.41;100813.72;4213557;28;20365;-59
2024/02/07 02:27:25;;;;;;;;;;;;;;;23.34;34.54;100805.66;4214116;28;19981;-62
2024/02/07 02:29:36;;;;;;;;;;;;;;;23.33;34.38;100801.25;4214205;28;19970;-60
2024/02/07 02:31:38;;;;;;;;;;;;;;;23.33;34.77;100796.75;4213649;28;19926;-61
2024/02/07 02:33:41;;;;;;;;;;;;;;;23.35;34.57;100794.78;4213969;28;19920;-61
2024/02/07 02:35:43;;;;;;;;;;;;;;;23.35;34.72;100797.47;4213959;28;19931;-61
2024/02/07 02:37:45;;;;;;;;;;;;;;;23.38;34.73;100783.78;4213951;28;19927;-61
2024/02/07 02:39:49;;;;;;;;;;;;;;;23.38;34.51;100794.50;4213261;28;19919;-60
2024/02/07 02:41:51;;;;;;;;;;;;;;;23.38;34.81;100790.97;4213815;28;19919;-61
2024/02/07 02:43:53;;;;;;;;;;;;;;;23.38;34.88;100788.28;4213675;28;19955;-60
2024/02/07 02:45:55;;;;;;;;;;;;;;;23.37;34.47;100781.25;4213630;28;19920;-61
2024/02/07 02:47:56;;;;;;;;;;;;;;;23.36;34.66;100779.53;4216868;28;20373;-60
2024/02/07 02:50:00;;;;;;;;;;;;;;;23.34;34.50;100779.66;4216940;28;19997;-61
2024/02/07 02:52:03;;;;;;;;;;;;;;;23.33;34.51;100779.78;4217065;28;20451;-60
2024/02/07 02:54:06;;;;;;;;;;;;;;;23.32;34.55;100773.59;4216584;28;19974;-61
2024/02/07 02:56:09;;;;;;;;;;;;;;;23.32;34.84;100776.28;4216813;28;19920;-60
2024/02/07 02:58:11;;;;;;;;;;;;;;;23.32;34.79;100768.22;4216932;28;19920;-61
2024/02/07 03:00:27;;;;;;;;;;;;;;;23.34;34.79;100762.72;4216963;28;19920;-60
2024/02/07 03:02:28;;;;;;;;;;;;;;;23.35;34.56;100770.63;4216907;28;20302;-61
2024/02/07 03:04:32;;;;;;;;;;;;;;;23.36;34.64;100761.59;4216862;28;20011;-61
2024/02/07 03:06:50;;;;;;;;;;;;;;;23.36;34.77;100739.28;4217030;28;19970;-61
2024/02/07 03:09:06;;;;;;;;;;;;;;;23.37;34.49;100746.34;4216425;28;19967;-61
2024/02/07 03:11:08;;;;;;;;;;;;;;;23.37;34.63;100741.81;4215446;28;20014;-60
2024/02/07 03:13:12;;;;;;;;;;;;;;;23.34;34.52;100731.34;4216868;28;19920;-61
2024/02/07 03:15:15;;;;;;;;;;;;;;;23.36;34.51;100731.22;4216687;28;20272;-62
2024/02/07 03:17:16;;;;;;;;;;;;;;;23.33;34.66;100729.69;4216603;28;19920;-61
2024/02/07 03:19:18;;;;;;;;;;;;;;;23.32;34.43;100719.06;4216483;28;20330;-62
2024/02/07 03:21:21;;;;;;;;;;;;;;;23.32;34.79;100721.75;4216518;28;20299;-61
2024/02/07 03:23:23;;;;;;;;;;;;;;;23.32;34.70;100727.97;4216185;28;20405;-62
2024/02/07 03:25:26;;;;;;;;;;;;;;;23.32;34.82;100725.28;4216705;28;19920;-63
2024/02/07 03:27:27;;;;;;;;;;;;;;;23.32;34.46;100717.25;4216438;28;20377;-62
2024/02/07 03:29:29;;;;;;;;;;;;;;;23.33;34.69;100718.94;4216307;28;20303;-62
2024/02/07 03:31:36;;;;;;;;;;;;;;;23.34;34.93;100701.81;4216517;28;20361;-62
2024/02/07 03:33:39;;;;;;;;;;;;;;;23.35;34.53;100703.53;4216575;28;20314;-61
2024/02/07 03:35:41;;;;;;;;;;;;;;;23.35;34.84;100706.22;4216435;28;19920;-61
2024/02/07 03:37:43;;;;;;;;;;;;;;;23.35;34.59;100697.31;4215845;28;19973;-62
2024/02/07 03:39:45;;;;;;;;;;;;;;;23.35;34.78;100694.63;4216384;28;19920;-61
2024/02/07 03:41:46;;;;;;;;;;;;;;;23.35;34.62;100690.09;4216066;28;19926;-62
2024/02/07 03:43:48;;;;;;;;;;;;;;;23.34;34.30;100677.66;4216379;28;19936;-61
2024/02/07 03:45:49;;;;;;;;;;;;;;;23.32;34.45;100674.31;4214964;28;20310;-61
2024/02/07 03:47:51;;;;;;;;;;;;;;;23.32;34.79;100678.81;4216245;28;19924;-61
2024/02/07 03:49:53;;;;;;;;;;;;;;;23.31;34.61;100685.16;4216355;28;19920;-61
2024/02/07 03:51:55;;;;;;;;;;;;;;;23.29;34.72;100678.13;4215879;28;20279;-61
2024/02/07 03:53:56;;;;;;;;;;;;;;;23.31;34.75;100669.06;4216086;28;19959;-61
2024/02/07 03:55:58;;;;;;;;;;;;;;;23.31;34.65;100667.22;4216163;28;19927;-60
2024/02/07 03:58:00;;;;;;;;;;;;;;;23.33;34.54;100661.72;4214755;28;19931;-60
2024/02/07 04:00:07;;;;;;;;;;;;;;;23.34;34.52;100666.09;4216028;28;19920;-61
2024/02/07 04:02:09;;;;;;;;;;;;;;;23.34;34.52;100661.56;4215818;28;20044;-61
2024/02/07 04:04:10;;;;;;;;;;;;;;;23.36;34.74;100656.09;4215796;28;19927;-61
2024/02/07 04:06:12;;;;;;;;;;;;;;;23.37;34.88;100642.53;4215666;28;20308;-61
2024/02/07 04:08:14;;;;;;;;;;;;;;;23.36;34.74;100656.09;4214641;28;19924;-61
2024/02/07 04:10:18;;;;;;;;;;;;;;;23.35;34.69;100649.03;4215925;28;19920;-60
2024/02/07 05:16:54;;;;;;;;;;;;;;;23.29;34.96;100586.00;4214438;28;19920;-61
2024/02/07 05:18:55;;;;;;;;;;;;;;;23.30;34.86;100582.34;4214437;28;19924;-61
2024/02/07 05:20:57;;;;;;;;;;;;;;;23.31;34.97;100589.41;4214858;28;20023;-61
2024/02/07 05:22:58;;;;;;;;;;;;;;;23.32;35.07;100572.31;4214649;28;19927;-61
2024/02/07 05:25:02;;;;;;;;;;;;;;;23.33;35.21;100578.53;4214815;28;19951;-60
2024/02/07 05:27:06;;;;;;;;;;;;;;;23.34;35.14;100580.22;4213322;28;19920;-60
2024/02/07 05:29:07;;;;;;;;;;;;;;;23.33;35.06;100582.09;4214476;28;19927;-61
2024/02/07 05:31:10;;;;;;;;;;;;;;;23.35;35.34;100589.97;4214445;28;20283;-61
2024/02/07 05:33:12;;;;;;;;;;;;;;;23.34;35.16;100593.66;4214176;28;19919;-61
2024/02/07 05:35:13;;;;;;;;;;;;;;;23.33;35.12;100583.91;4214475;28;19920;-61
2024/02/07 05:37:15;;;;;;;;;;;;;;;23.33;35.14;100584.75;4214370;28;19920;-62
2024/02/07 05:39:17;;;;;;;;;;;;;;;23.32;35.14;100585.75;4214524;28;20244;-61
2024/02/07 05:41:19;;;;;;;;;;;;;;;23.31;34.99;100580.50;4214204;28;19920;-60
2024/02/07 05:43:20;;;;;;;;;;;;;;;23.31;35.25;100580.50;4214267;28;19950;-60
2024/02/07 05:45:22;;;;;;;;;;;;;;;23.31;35.20;100583.19;4214444;28;19923;-60
2024/02/07 05:47:23;;;;;;;;;;;;;;;23.31;35.14;100578.69;4214134;28;19926;-61
2024/02/07 05:49:25;;;;;;;;;;;;;;;23.32;35.14;100577.69;4214331;28;20015;-61
2024/02/07 05:51:27;;;;;;;;;;;;;;;23.33;35.17;100578.53;4214469;28;19920;-61
2024/02/07 05:53:30;;;;;;;;;;;;;;;23.34;35.28;100574.88;4214323;28;19920;-61
2024/02/07 05:55:32;;;;;;;;;;;;;;;23.34;35.27;100573.00;4214180;28;20374;-61
2024/02/07 05:57:34;;;;;;;;;;;;;;;23.34;35.24;100564.97;4214314;28;20003;-62
2024/02/07 05:59:35;;;;;;;;;;;;;;;23.34;34.99;100564.97;4214261;28;20303;-61
2024/02/07 06:01:37;;;;;;;;;;;;;;;23.33;35.40;100563.28;4214274;28;20284;-61
2024/02/07 06:03:50;;;;;;;;;;;;;;;23.34;35.15;100558.75;4213812;28;19959;-61
2024/02/07 06:05:53;;;;;;;;;;;;;;;23.33;35.36;100571.34;4214281;28;19920;-61
2024/02/07 06:07:54;;;;;;;;;;;;;;;23.31;35.28;100562.59;4213951;28;19926;-61
2024/02/07 06:09:56;;;;;;;;;;;;;;;23.30;35.13;100555.50;4214084;28;19927;-61
2024/02/07 06:11:59;;;;;;;;;;;;;;;23.29;35.36;100559.19;4214226;28;20101;-61
2024/02/07 06:14:00;;;;;;;;;;;;;;;23.29;35.35;100546.63;4214170;28;19966;-61
2024/02/07 06:16:02;;;;;;;;;;;;;;;23.31;35.30;100554.53;4214051;28;19920;-61
2024/02/07 06:18:03;;;;;;;;;;;;;;;23.32;35.49;100550.88;4213754;28;20087;-60
2024/02/07 06:20:08;;;;;;;;;;;;;;;23.34;35.25;100539.97;4213998;28;19920;-61
2024/02/07 06:22:11;;;;;;;;;;;;;;;23.34;35.30;100538.13;4217293;28;19920;-61
2024/02/07 06:24:13;;;;;;;;;;;;;;;23.35;35.31;100536.31;4217401;28;20023;-60
2024/02/07 06:26:15;;;;;;;;;;;;;;;23.35;35.34;100529.09;4217684;28;19955;-60
2024/02/07 06:28:16;;;;;;;;;;;;;;;23.35;35.27;100525.56;4217483;28;19920;-61
2024/02/07 06:30:18;;;;;;;;;;;;;;;23.35;35.32;100509.47;4217369;28;19955;-60
2024/02/07 06:32:19;;;;;;;;;;;;;;;23.33;35.36;100512.31;4215940;28;19927;-60
2024/02/07 06:34:21;;;;;;;;;;;;;;;23.32;35.31;100513.28;4217395;28;20298;-61
2024/02/07 06:36:23;;;;;;;;;;;;;;;23.30;35.57;100509.91;4217243;28;19974;-61
2024/02/07 06:38:25;;;;;;;;;;;;;;;23.31;35.38;100506.22;4217354;28;19923;-61
2024/02/07 06:40:29;;;;;;;;;;;;;;;23.31;35.44;100508.03;4216965;28;19919;-61
2024/02/07 06:42:31;;;;;;;;;;;;;;;23.30;35.28;100493.81;4217483;28;19924;-62
2024/02/07 06:44:32;;;;;;;;;;;;;;;23.31;35.25;100498.19;4217040;28;19920;-61
2024/02/07 06:46:39;;;;;;;;;;;;;;;23.32;35.46;100499.88;4217006;28;20382;-62
2024/02/07 06:48:41;;;;;;;;;;;;;;;23.34;35.37;100497.03;4217055;28;19976;-61
2024/02/07 06:50:42;;;;;;;;;;;;;;;23.33;35.59;100500.72;4216802;28;19920;-61
2024/02/07 06:52:44;;;;;;;;;;;;;;;23.33;35.38;100498.88;4217041;28;19926;-61
2024/02/07 06:54:46;;;;;;;;;;;;;;;23.34;35.45;100497.03;4217117;28;20010;-61
2024/02/07 06:56:47;;;;;;;;;;;;;;;23.26;35.47;100473.63;4216955;28;19954;-60
2024/02/07 06:58:49;;;;;;;;;;;;;;;23.33;35.57;100489.97;4216949;28;20394;-60
2024/02/07 07:00:50;;;;;;;;;;;;;;;23.33;35.37;100492.66;4216766;28;19924;-61
2024/02/07 07:02:52;;;;;;;;;;;;;;;23.33;35.43;100495.34;4216951;28;19973;-60
2024/02/07 07:04:54;;;;;;;;;;;;;;;23.31;35.33;100487.44;4216892;28;19969;-62
2024/02/07 07:06:56;;;;;;;;;;;;;;;23.31;35.42;100494.63;4216844;28;20387;-60
2024/02/07 07:08:58;;;;;;;;;;;;;;;23.28;35.46;100483.22;4216702;28;19920;-61
2024/02/07 07:10:59;;;;;;;;;;;;;;;23.30;35.58;100477.69;4216750;28;19927;-61
2024/02/07 07:13:01;;;;;;;;;;;;;;;23.29;35.38;100476.88;4216597;28;19990;-62
2024/02/07 07:15:02;;;;;;;;;;;;;;;23.32;35.44;100472.19;4216378;28;19919;-61
2024/02/07 07:17:11;;;;;;;;;;;;;;;23.32;35.74;100467.69;4216737;28;19931;-62
2024/02/07 07:19:12;;;;;;;;;;;;;;;23.33;35.62;100458.63;4216372;28;19960;-61
2024/02/07 07:21:14;;;;;;;;;;;;;;;23.34;35.34;100465.69;4216470;28;19920;-61
2024/02/07 07:23:16;;;;;;;;;;;;;;;23.34;35.43;100462.16;4216302;28;20335;-61
2024/02/07 07:25:18;;;;;;;;;;;;;;;23.34;35.49;100470.22;4216732;28;19989;-61
2024/02/07 07:27:19;;;;;;;;;;;;;;;23.33;35.47;100465.81;4216439;28;19920;-61
2024/02/07 07:29:21;;;;;;;;;;;;;;;23.32;35.58;100459.63;4215966;28;19924;-61
2024/02/07 07:31:23;;;;;;;;;;;;;;;23.30;35.57;100466.97;4216439;28;20391;-61
2024/02/07 07:33:25;;;;;;;;;;;;;;;23.30;35.40;100480.38;4216362;28;20002;-61
2024/02/07 07:35:26;;;;;;;;;;;;;;;23.31;35.57;100486.59;4215229;28;19927;-61
2024/02/07 07:37:28;;;;;;;;;;;;;;;23.31;35.54;100486.59;4216079;28;19951;-61
2024/02/07 07:39:30;;;;;;;;;;;;;;;23.31;35.64;100489.25;4216202;28;19924;-61
2024/02/07 07:41:31;;;;;;;;;;;;;;;23.31;35.54;100491.94;4215999;28;19928;-62
2024/02/07 07:43:35;;;;;;;;;;;;;;;23.33;35.57;100498.03;4214579;28;19920;-61
2024/02/07 07:45:37;;;;;;;;;;;;;;;23.33;35.64;100488.16;4216274;28;20244;-62
2024/02/07 07:47:39;;;;;;;;;;;;;;;23.34;35.86;100489.00;4216230;28;19923;-60
2024/02/07 07:49:41;;;;;;;;;;;;;;;23.34;35.91;100487.16;4216126;28;19919;-60
2024/02/07 07:51:42;;;;;;;;;;;;;;;23.34;35.40;100484.47;4216141;28;19920;-61
2024/02/07 07:53:44;;;;;;;;;;;;;;;23.34;35.40;100491.69;4216119;28;19920;-61
2024/02/07 07:55:45;;;;;;;;;;;;;;;23.32;35.50;100489.16;4216103;28;19927;-61
2024/02/07 07:57:47;;;;;;;;;;;;;;;23.32;35.40;100483.78;4216067;28;19920;-61
2024/02/07 07:59:49;;;;;;;;;;;;;;;23.31;35.53;100481.22;4215898;28;19924;-61
2024/02/07 08:01:56;;;;;;;;;;;;;;;23.31;35.76;100494.63;4216117;28;20419;-63
2024/02/07 08:03:57;;;;;;;;;;;;;;;23.30;35.71;100496.47;4216168;28;20000;-62
2024/02/07 08:05:59;;;;;;;;;;;;;;;23.30;35.90;100488.44;4215990;28;20321;-60
2024/02/07 08:08:01;;;;;;;;;;;;;;;23.31;35.63;100492.81;4215973;28;20023;-60
2024/02/07 08:10:03;;;;;;;;;;;;;;;23.32;35.64;100486.47;4215924;28;20325;-61
2024/02/07 08:12:05;;;;;;;;;;;;;;;23.33;35.50;100493.53;4216076;28;19959;-60
2024/02/07 08:14:06;;;;;;;;;;;;;;;23.33;35.74;100490.84;4215274;28;19967;-61
2024/02/07 08:16:08;;;;;;;;;;;;;;;23.35;35.83;100488.00;4215718;28;19951;-61
2024/02/07 08:18:10;;;;;;;;;;;;;;;23.35;35.69;100480.78;4215722;28;19920;-61
2024/02/07 08:20:11;;;;;;;;;;;;;;;23.34;35.38;100483.63;4215630;28;19924;-61
2024/02/07 08:22:13;;;;;;;;;;;;;;;23.34;35.49;100483.63;4215496;28;19950;-61
2024/02/07 08:24:15;;;;;;;;;;;;;;;23.34;35.51;100476.41;4215520;28;19920;-61
2024/02/07 08:26:16;;;;;;;;;;;;;;;23.34;35.45;100473.72;4215569;28;20239;-61
2024/02/07 08:28:18;;;;;;;;;;;;;;;23.32;35.74;100467.69;4215200;28;19951;-60
2024/02/07 08:30:21;;;;;;;;;;;;;;;23.32;35.59;100482.91;4215588;28;20193;-60
2024/02/07 08:32:22;;;;;;;;;;;;;;;23.30;35.82;100464.28;4215487;28;19924;-61
2024/02/07 08:34:24;;;;;;;;;;;;;;;23.30;35.66;100469.66;4215470;28;19923;-61
2024/02/07 08:36:26;;;;;;;;;;;;;;;23.31;35.81;100465.97;4214320;28;19958;-60
2024/02/07 08:38:28;;;;;;;;;;;;;;;23.33;35.59;100465.81;4215252;28;20375;-61
2024/02/07 08:40:31;;;;;;;;;;;;;;;23.34;35.56;100467.53;4215472;28;19971;-61
2024/02/07 08:42:35;;;;;;;;;;;;;;;23.35;35.68;100472.75;4215040;28;19944;-61
2024/02/07 08:44:38;;;;;;;;;;;;;;;23.36;35.83;100470.91;4214744;28;19920;-61
2024/02/07 08:46:43;;;;;;;;;;;;;;;23.36;35.56;100462.88;4215597;28;20023;-61
2024/02/07 08:48:47;;;;;;;;;;;;;;;23.36;35.66;100465.56;4215446;28;20009;-61
2024/02/07 08:50:48;;;;;;;;;;;;;;;23.35;35.46;100464.69;4215180;28;19926;-61
2024/02/07 08:52:50;;;;;;;;;;;;;;;23.34;35.70;100468.34;4215153;28;19920;-61
2024/02/07 08:54:51;;;;;;;;;;;;;;;23.34;35.55;100464.84;4215216;28;20383;-61
2024/02/07 08:56:53;;;;;;;;;;;;;;;23.33;35.81;100472.06;4214835;28;20294;-61
2024/02/07 08:58:54;;;;;;;;;;;;;;;23.32;35.70;100456.09;4215173;28;19954;-61
2024/02/07 09:00:56;;;;;;;;;;;;;;;23.29;35.87;100463.44;4213956;28;19920;-61
2024/02/07 09:02:58;;;;;;;;;;;;;;;23.31;35.69;100455.25;4215380;28;19931;-60
2024/02/07 09:05:04;;;;;;;;;;;;;;;23.34;35.87;100456.78;4214845;28;19926;-61
2024/02/07 09:07:06;;;;;;;;;;;;;;;23.33;35.59;100447.91;4215075;28;19927;-61
2024/02/07 09:09:08;;;;;;;;;;;;;;;23.35;35.69;100451.28;4214795;28;19920;-62
2024/02/07 09:11:09;;;;;;;;;;;;;;;23.36;35.48;100458.34;4214699;28;19927;-62
2024/02/07 09:13:11;;;;;;;;;;;;;;;23.36;35.57;100446.75;4214930;28;19943;-61
2024/02/07 09:15:12;;;;;;;;;;;;;;;23.36;35.76;100457.50;4214964;28;19920;-61
2024/02/07 09:17:14;;;;;;;;;;;;;;;23.36;35.55;100462.88;4209877;28;19974;-60
2024/02/07 09:19:15;;;;;;;;;;;;;;;23.35;35.70;100455.81;4195398;28;20055;-62
2024/02/07 09:21:17;;;;;;;;;;;;;;;23.36;35.73;100455.66;4197802;28;19925;-61
2024/02/07 09:23:19;;;;;;;;;;;;;;;23.33;35.88;100447.03;4195215;28;20295;-62
2024/02/07 09:25:20;;;;;;;;;;;;;;;23.25;35.86;100448.59;4197100;28;20016;-61
2024/02/07 09:27:22;;;;;;;;;;;;;;;23.19;36.22;100451.88;4196256;28;19928;-61
2024/02/07 09:29:24;;;;;;;;;;;;;;;23.13;36.80;100437.16;4197849;28;19940;-61
2024/02/07 09:31:25;;;;;;;;;;;;;;;23.07;36.40;100437.72;4197600;28;20303;-62
2024/02/07 09:33:27;;;;;;;;;;;;;;;23.07;36.72;100444.94;4197487;28;20326;-62
2024/02/07 09:35:29;;;;;;;;;;;;;;;23.02;36.99;100434.63;4197540;28;19951;-62
2024/02/07 09:37:31;;;;;;;;;;;;;;;22.95;37.02;100438.88;4205929;28;19931;-61
2024/02/07 09:39:32;;;;;;;;;;;;;;;22.94;36.84;100437.19;4194966;28;19925;-62
2024/02/07 09:41:34;;;;;;;;;;;;;;;22.95;37.28;100422.78;4194738;28;19959;-61
2024/02/07 09:43:36;;;;;;;;;;;;;;;22.93;37.36;100432.78;4191301;28;19927;-61
2024/02/07 09:45:39;;;;;;;;;;;;;;;22.90;37.21;100430.41;4197681;28;19942;-59
2024/02/07 09:47:47;;;;;;;;;;;;;;;22.87;37.20;100436.91;4196776;28;19920;-58
2024/02/07 09:49:49;;;;;;;;;;;;;;;22.80;37.88;100423.22;4189951;28;20458;-59
2024/02/07 09:51:50;;;;;;;;;;;;;;;22.78;37.99;100437.75;4193060;28;20015;-59
2024/02/07 09:53:52;;;;;;;;;;;;;;;22.75;37.30;100440.72;4195263;28;20026;-60
2024/02/07 09:55:54;;;;;;;;;;;;;;;22.73;37.64;100427.44;4196837;28;19924;-60
2024/02/07 09:57:56;;;;;;;;;;;;;;;22.68;37.64;100426.19;4195738;28;19920;-60
2024/02/07 09:59:58;;;;;;;;;;;;;;;22.57;37.58;100427.19;4197076;28;20327;-61
2024/02/07 10:02:00;;;;;;;;;;;;;;;22.58;38.20;100423.50;4196984;28;20307;-61
2024/02/07 10:04:02;;;;;;;;;;;;;;;22.55;38.17;100416.56;4196465;28;19927;-62
2024/02/07 10:06:05;;;;;;;;;;;;;;;22.53;38.22;100425.75;4195687;28;20046;-61
2024/02/07 10:08:07;;;;;;;;;;;;;;;22.53;38.14;100415.88;4195203;28;20303;-62
2024/02/07 10:10:09;;;;;;;;;;;;;;;22.50;38.89;100416.16;4193175;28;20419;-59
2024/02/07 10:12:12;;;;;;;;;;;;;;;22.46;38.49;100417.44;4193520;28;19928;-63
2024/02/07 10:14:14;;;;;;;;;;;;;;;22.45;38.57;100416.56;4195410;28;20433;-59
2024/02/07 10:16:16;;;;;;;;;;;;;;;22.42;38.55;100421.34;4195063;28;19921;-63
2024/02/07 10:18:18;;;;;;;;;;;;;;;22.35;38.36;100415.69;4196707;28;19974;-61
2024/02/07 10:20:20;;;;;;;;;;;;;;;22.33;38.64;100410.47;4196720;28;20284;-62
2024/02/07 10:22:21;;;;;;;;;;;;;;;22.35;38.34;100415.69;4196611;28;19920;-63
2024/02/07 10:24:27;;;;;;;;;;;;;;;22.39;38.58;100408.25;4193853;28;20390;-61
2024/02/07 10:26:28;;;;;;;;;;;;;;;22.34;38.53;100403.28;4190432;28;19928;-59
2024/02/07 10:28:30;;;;;;;;;;;;;;;22.31;38.44;100415.13;4195726;28;19936;-62
2024/02/07 10:30:32;;;;;;;;;;;;;;;22.28;38.49;100403.84;4196154;28;20008;-64
2024/02/07 10:32:34;;;;;;;;;;;;;;;22.24;39.06;100408.63;4195839;28;20328;-64
2024/02/07 10:34:37;;;;;;;;;;;;;;;22.13;38.96;100401.53;4193443;28;19921;-60
2024/02/07 10:36:38;;;;;;;;;;;;;;;22.11;39.21;100400.00;4197489;28;19924;-61
2024/02/07 10:38:45;;;;;;;;;;;;;;;22.14;39.42;100391.66;4195148;28;19962;-61
2024/02/07 10:40:47;;;;;;;;;;;;;;;22.18;39.44;100382.38;4192070;28;20439;-62
2024/02/07 10:42:55;;;;;;;;;;;;;;;22.21;39.59;100386.63;4192645;28;19920;-63
2024/02/07 10:45:06;;;;;;;;;;;;;;;22.22;39.28;100389.16;4195861;28;19994;-62
2024/02/07 10:47:10;;;;;;;;;;;;;;;22.20;39.08;100375.06;4196501;28;19920;-61
2024/02/07 10:49:11;;;;;;;;;;;;;;;22.18;38.90;100380.53;4196304;28;19921;-63
2024/02/07 10:51:13;;;;;;;;;;;;;;;22.14;39.20;100378.28;4196418;28;20343;-61
2024/02/07 10:53:15;;;;;;;;;;;;;;;22.09;39.22;100384.06;4194966;28;19924;-61
2024/02/07 10:55:23;;;;;;;;;;;;;;;22.09;39.47;100365.31;4196284;28;19971;-63
2024/02/07 10:57:38;;;;;;;;;;;;;;;22.11;39.14;100366.00;4196511;28;19928;-62
2024/02/07 10:59:40;;;;;;;;;;;;;;;22.09;39.15;100357.28;4196259;28;20375;-61
2024/02/07 11:01:43;;;;;;;;;;;;;;;22.10;38.90;100363.47;4196093;28;19920;-61
2024/02/07 11:03:45;;;;;;;;;;;;;;;22.08;38.97;100360.09;4194138;28;19927;-62
2024/02/07 11:05:50;;;;;;;;;;;;;;;21.99;39.04;100345.69;4194607;28;19920;-61
2024/02/07 11:07:52;;;;;;;;;;;;;;;22.01;39.19;100352.59;4197291;28;19927;-63
2024/02/07 11:09:54;;;;;;;;;;;;;;;22.00;39.36;100348.22;4197788;28;19925;-62
2024/02/07 11:11:56;;;;;;;;;;;;;;;21.95;39.36;100357.69;4198545;28;19924;-63
2024/02/07 11:13:58;;;;;;;;;;;;;;;21.94;39.09;100347.94;4199254;28;20378;-61
2024/02/07 11:16:00;;;;;;;;;;;;;;;21.95;39.42;100337.09;4199229;28;20403;-62
2024/02/07 11:18:03;;;;;;;;;;;;;;;21.92;39.53;100332.03;4198506;28;19920;-62
2024/02/07 11:20:11;;;;;;;;;;;;;;;21.93;39.38;100343.56;4197362;28;19927;-61
2024/02/07 11:22:21;;;;;;;;;;;;;;;21.90;39.36;100333.16;4198421;28;19931;-62
2024/02/07 11:24:23;;;;;;;;;;;;;;;21.90;39.38;100319.78;4198043;28;19943;-62
2024/02/07 11:26:25;;;;;;;;;;;;;;;21.92;39.54;100320.47;4204934;28;19920;-62
2024/02/07 11:28:27;;;;;;;;;;;;;;;21.88;39.56;100319.88;4195155;28;20036;-63
2024/02/07 11:30:35;;;;;;;;;;;;;;;21.88;39.68;100317.22;4196931;28;19924;-62
2024/02/07 11:32:41;;;;;;;;;;;;;;;21.80;40.08;100309.88;4196914;28;19920;-61